Airfield :
LOGIN :

Register | Disclaimer

   EN    FR    IT 

 










Legend :    VFR   Marginal VFR   IFR   Intensive IFR   Very Intensive IFR
Visi :
Ceiling :
>= 8 km
>= 3000ft
5 to 8 km
1000 to 3000 ft
1500m to 5 km
500 to 1000 ft
800 to 1500m
200 to 500 ft
< 800m
< 200 ft
Symbols :   Thunderstorms  Fog  Heavy snow  Heavy precipitations  Wind > 20 kt
SIGMETs :     Misc.  Thunderstorms  Icing  Turbulence  Mountain Waves  Volcanic Ashes






- Airport Elevation : 2625 ft
- IATA code : LEU


LESU - Aeròdrom dels Pirineus-Alt Urgell

CURRENT METAR :
  • 151230Z 21012KT 9999 SCT020 SCT030TCU 30/13 Q1015

EXPIRED METARs :
  • 151200Z 21010KT 9999 SCT020 SCT030TCU 30/14 Q1015
  • 151130Z 23008KT 200V260 9999 SCT020 SCT030TCU 29/14 Q1015
  • 151100Z 22007KT 190V260 9999 SCT020 SCT030 27/12 Q1015
  • 151030Z VRB02KT 9999 FEW020 SCT030 26/13 Q1016
  • 151000Z VRB03KT 9999 FEW020 SCT030 25/15 Q1016

TAF TAF LESU
Valid from the 15 at 09:00 until the 16 at 09:00 UTC


150800Z 1509/1609 VRB03KT 9999 FEW020 TX30/1515Z TN13/1605Z
BECMG 1511/1513 21010KT
PROB40
TEMPO 1512/1522 4000 TSRA SCT040CB BKN050
BECMG 1518/1520 VRB03KT



MET'MAP, your aeronautical weather chart ! - Copyright ORBIFLY December 2007 - Disclaimer

ORBIFLY MET'MAP TEAM :

Programming & Development : Alexandra Zaïnal
Concept & original design : Baudouin d'Aumeries
Assistance for programming : Marc-Olivier Méhu
Technical & hardware support : Manuel Goepfert

Contact : metmap@orbifly.com




SOURCES & CREDITS :

   NOAA